Meteo Giornale » Osservazioni meteo Italia » Pescara

ore: 00:50 - Osservazioni Meteo Pescara
Lat. 42° 26' N Lon. 14° 12' E Alt. 10 metri s.l.m.

coperto Europe/Rome

21 °C

Coperto

Temp. 24 Ore

9 °C

28 °C

Nord

3.7 Km/h

Dew point 8 °C

Umidità 43 %

Visibilità  10 Km

Il sole sorge alle ore 06:01

Il sole tramonta alle ore 20:00

Data e Ora Cielo e Fenomeni T °C DP °C Um. % Pres. hPa Vis. km Vento km/h
Oggi h: 00:50 coperto Coperto 21 8 43 1010 10 N 3.7
Ieri h: 23:50 molto_nuvoloso Molto Nuvoloso 21 8 43 1011 10 O/SO 22.2
Ieri h: 22:50 sereno Sereno 22 7 37 1011 10 S 16.7
Ieri h: 22:10 poco_nuvoloso Poco Nuvoloso 22 7 37 1010 10 S/SO 27.8
Ieri h: 21:50 poco_nuvoloso Poco Nuvoloso 23 6 33 1010 10 SO 25.9
Ieri h: 20:50 poco_nuvoloso Poco Nuvoloso 23 5 31 1010 10 SE 7.4
Ieri h: 19:50 nuvoloso Nuvoloso 24 5 29 1009 10 O/SO 18.5
Ieri h: 18:50 nuvoloso Nuvoloso 25 5 27 1008 10 SO 13
Ieri h: 17:50 nuvoloso Nuvoloso 26 6 27 1008 10 S/SO 22.2
Ieri h: 16:50 nuvoloso Nuvoloso 27 7 28 1008 10 S/SO 22.2
Ieri h: 15:50 poco_nuvoloso Poco Nuvoloso 27 5 24 1008 10 SO 25.9
Ieri h: 14:50 sereno Sereno 28 3 20 1008 10 SO 27.8
Ieri h: 13:50 sereno Sereno 24 6 31 1009 10 E/SE 18.5
Ieri h: 12:50 sereno Sereno 25 3 23 1009 10 E 20.3
Ieri h: 11:50 sereno Sereno 23 4 28 1010 10 SE 16.7
Ieri h: 09:50 sereno Sereno 18 11 63 1011 10 N/NE 13
Ieri h: 08:50 sereno Sereno 17 11 67 1011 10 N/NE 13
Ieri h: 07:50 sereno Sereno 16 9 63 1011 10 E/NE 14.8
Ieri h: 06:50 sereno Sereno 18 1 31 1011 10 SO 22.2
Ieri h: 05:50 sereno Sereno 17 0 31 1010 10 SO 20.3
Ieri h: 04:50 sereno Sereno 17 -0 31 1011 10 SO 14.8
Ieri h: 03:50 sereno Sereno 18 -1 27 1011 10 SO 25.9
Ieri h: 02:50 sereno Sereno 15 4 47 1011 10 S/SO 16.7
Ieri h: 01:50 sereno Sereno 9 7 87 1012 10 N 3.7